createdAt,value
2022-09-06T00:00:02.055Z,100730.98
2022-09-06T00:02:54.999Z,100732.31
2022-09-06T00:05:23.150Z,100731.57
2022-09-06T00:07:50.870Z,100734.68
2022-09-06T00:10:19.168Z,100734.27
2022-09-06T00:12:47.903Z,100733.69
2022-09-06T00:15:15.719Z,100732.11
2022-09-06T00:17:45.239Z,100729.75
2022-09-06T00:20:13.038Z,100727.17
2022-09-06T00:22:41.264Z,100725.52
2022-09-06T00:25:09.224Z,100724.45
2022-09-06T00:27:37.100Z,100724.77
2022-09-06T00:30:05.156Z,100728.14
2022-09-06T00:32:33.036Z,100726.30
2022-09-06T00:35:00.938Z,100728.30
2022-09-06T00:37:28.771Z,100730.59
2022-09-06T00:39:56.562Z,100729.90
2022-09-06T00:42:24.605Z,100729.07
2022-09-06T00:44:52.414Z,100732.66
2022-09-06T00:47:20.261Z,100733.81
2022-09-06T00:49:52.679Z,100734.23
2022-09-06T00:52:21.415Z,100735.69
2022-09-06T00:54:50.424Z,100734.87
2022-09-06T00:57:18.561Z,100735.11
2022-09-06T00:59:48.205Z,100733.67
2022-09-06T01:02:16.062Z,100734.98
2022-09-06T01:04:45.330Z,100733.91
2022-09-06T01:07:19.045Z,100735.58
2022-09-06T01:10:04.389Z,100734.80
2022-09-06T01:12:45.383Z,100734.68
2022-09-06T01:15:35.189Z,100738.67
2022-09-06T01:18:15.422Z,100741.85
2022-09-06T01:20:57.829Z,100746.23
2022-09-06T01:23:25.627Z,100749.31
2022-09-06T01:26:02.779Z,100751.91
2022-09-06T01:28:33.615Z,100750.99
2022-09-06T01:31:19.836Z,100750.54
2022-09-06T01:33:51.844Z,100747.67
2022-09-06T01:36:23.058Z,100750.23
2022-09-06T01:38:50.790Z,100749.70
2022-09-06T01:41:18.501Z,100750.63
2022-09-06T01:43:49.686Z,100754.30
2022-09-06T01:46:23.811Z,100757.05
2022-09-06T01:48:54.400Z,100755.92
2022-09-06T01:51:25.183Z,100753.75
2022-09-06T01:53:53.136Z,100749.57
2022-09-06T01:56:30.218Z,100747.04
2022-09-06T01:59:01.082Z,100745.13
2022-09-06T02:01:32.694Z,100742.45
2022-09-06T02:04:12.677Z,100747.98
2022-09-06T02:06:42.795Z,100749.89
2022-09-06T02:09:13.487Z,100747.02
2022-09-06T02:11:44.651Z,100746.51
2022-09-06T02:14:15.957Z,100744.44
2022-09-06T02:16:45.995Z,100747.66
2022-09-06T02:19:36.033Z,100747.46
2022-09-06T02:22:07.860Z,100745.91
2022-09-06T02:24:37.416Z,100742.88
2022-09-06T02:27:05.329Z,100743.40
2022-09-06T02:29:34.038Z,100743.90
2022-09-06T02:32:07.404Z,100746.58
2022-09-06T02:34:37.540Z,100746.75
2022-09-06T02:37:06.110Z,100743.18
2022-09-06T02:39:34.117Z,100746.91
2022-09-06T02:42:02.618Z,100749.13
2022-09-06T02:44:30.434Z,100751.52
2022-09-06T02:46:58.731Z,100752.06
2022-09-06T02:49:26.482Z,100751.52
2022-09-06T02:51:54.154Z,100754.40
2022-09-06T02:54:22.002Z,100758.04
2022-09-06T02:56:52.206Z,100762.27
2022-09-06T02:59:20.905Z,100766.04
2022-09-06T03:01:48.878Z,100767.63
2022-09-06T03:04:16.739Z,100770.99
2022-09-06T03:06:44.483Z,100773.45
2022-09-06T03:09:12.266Z,100777.29
2022-09-06T03:11:40.089Z,100782.09
2022-09-06T03:14:07.954Z,100788.75
2022-09-06T03:16:37.178Z,100785.51
2022-09-06T03:19:05.168Z,100792.55
2022-09-06T03:21:32.982Z,100792.38
2022-09-06T03:24:18.100Z,100790.30
2022-09-06T03:26:45.865Z,100786.54
2022-09-06T03:29:13.647Z,100780.46
2022-09-06T03:31:41.381Z,100776.74
2022-09-06T03:34:11.057Z,100775.48
2022-09-06T03:36:39.276Z,100767.20
2022-09-06T03:39:07.266Z,100766.04
2022-09-06T03:41:35.075Z,100764.52
2022-09-06T03:44:03.141Z,100761.99
2022-09-06T03:46:31.250Z,100757.80
2022-09-06T03:48:59.729Z,100756.59
2022-09-06T03:51:27.505Z,100754.27
2022-09-06T03:53:55.826Z,100750.99
2022-09-06T03:56:23.565Z,100744.73
2022-09-06T03:58:51.513Z,100736.03
2022-09-06T04:01:19.403Z,100737.61
2022-09-06T04:03:47.359Z,100736.27
2022-09-06T04:06:15.087Z,100738.52
2022-09-06T04:08:42.995Z,100735.76
2022-09-06T04:11:11.029Z,100728.13
2022-09-06T04:13:39.008Z,100726.13
2022-09-06T04:16:06.873Z,100726.47
2022-09-06T04:18:35.047Z,100727.13
2022-09-06T04:21:03.137Z,100727.35
2022-09-06T04:23:31.052Z,100727.71
2022-09-06T04:25:59.564Z,100726.42
2022-09-06T04:28:28.012Z,100733.63
2022-09-06T04:31:04.377Z,100735.00
2022-09-06T04:33:34.539Z,100728.16
2022-09-06T04:36:03.715Z,100733.88
2022-09-06T04:38:35.112Z,100732.61
2022-09-06T04:41:03.456Z,100726.32
2022-09-06T04:43:31.320Z,100731.17
2022-09-06T04:46:03.414Z,100730.57
2022-09-06T04:48:31.319Z,100728.14
2022-09-06T04:50:59.142Z,100729.63
2022-09-06T04:53:27.290Z,100731.77
2022-09-06T04:55:56.851Z,100732.16
2022-09-06T04:58:25.224Z,100730.80
2022-09-06T05:00:53.183Z,100728.44
2022-09-06T05:03:21.170Z,100735.08
2022-09-06T05:05:49.186Z,100735.73
2022-09-06T05:08:16.983Z,100731.84
2022-09-06T05:10:44.740Z,100733.37
2022-09-06T05:13:12.477Z,100734.27
2022-09-06T05:15:40.195Z,100733.23
2022-09-06T05:18:07.899Z,100731.59
2022-09-06T05:20:37.203Z,100730.34
2022-09-06T05:23:05.171Z,100728.02
2022-09-06T05:25:33.006Z,100729.25
2022-09-06T05:28:00.799Z,100729.31
2022-09-06T05:30:28.462Z,100731.92
2022-09-06T05:32:56.525Z,100733.02
2022-09-06T05:35:24.399Z,100736.58
2022-09-06T05:37:52.114Z,100737.06
2022-09-06T05:40:20.120Z,100734.23
2022-09-06T05:42:47.811Z,100726.89
2022-09-06T05:45:15.829Z,100726.17
2022-09-06T05:47:46.825Z,100731.92
2022-09-06T05:50:16.307Z,100736.13
2022-09-06T05:52:44.349Z,100734.05
2022-09-06T05:55:12.208Z,100736.27
2022-09-06T05:57:40.053Z,100739.44
2022-09-06T06:00:08.206Z,100740.48
2022-09-06T06:02:40.398Z,100740.08
2022-09-06T06:05:08.722Z,100740.33
2022-09-06T06:07:36.430Z,100741.25
2022-09-06T06:10:04.537Z,100741.77
2022-09-06T06:12:32.295Z,100744.26
2022-09-06T06:15:00.806Z,100742.24
2022-09-06T06:17:28.664Z,100748.75
2022-09-06T06:19:56.656Z,100752.20
2022-09-06T06:22:24.868Z,100751.08
2022-09-06T06:24:52.850Z,100751.50
2022-09-06T06:27:20.562Z,100754.85
2022-09-06T06:29:48.272Z,100757.45
2022-09-06T06:32:16.589Z,100753.73
2022-09-06T06:34:44.248Z,100755.69
2022-09-06T06:37:12.147Z,100757.83
2022-09-06T06:39:40.111Z,100763.96
2022-09-06T06:42:09.377Z,100767.51
2022-09-06T06:44:44.971Z,100764.58
2022-09-06T06:47:12.799Z,100762.73
2022-09-06T06:49:40.579Z,100762.76
2022-09-06T06:52:08.381Z,100761.48
2022-09-06T06:54:37.525Z,100761.28
2022-09-06T06:57:05.891Z,100762.80
2022-09-06T06:59:33.867Z,100769.94
2022-09-06T07:02:01.824Z,100771.39
2022-09-06T07:04:29.820Z,100772.66
2022-09-06T07:12:33.915Z,100778.09
2022-09-06T07:15:01.915Z,100777.43
2022-09-06T07:17:29.681Z,100775.72
2022-09-06T07:20:13.090Z,100771.45
2022-09-06T07:22:41.803Z,100769.72
2022-09-06T07:25:12.750Z,100766.27
2022-09-06T07:27:49.306Z,100770.13
2022-09-06T07:30:20.077Z,100767.56
2022-09-06T07:32:48.257Z,100769.30
2022-09-06T07:35:16.150Z,100773.40
2022-09-06T07:37:43.980Z,100773.20
2022-09-06T07:40:11.908Z,100776.31
2022-09-06T07:42:40.045Z,100776.52
2022-09-06T07:45:08.601Z,100775.05
2022-09-06T07:53:15.183Z,100783.83
2022-09-06T07:55:45.431Z,100782.98
2022-09-06T07:58:13.169Z,100783.67
2022-09-06T08:00:41.572Z,100786.15
2022-09-06T08:03:10.527Z,100786.29
2022-09-06T08:11:14.578Z,100781.17
2022-09-06T08:13:42.601Z,100779.75
2022-09-06T08:16:11.401Z,100776.45
2022-09-06T08:18:39.303Z,100773.54
2022-09-06T08:21:12.884Z,100774.61
2022-09-06T08:23:44.837Z,100771.71
2022-09-06T08:26:13.956Z,100769.49
2022-09-06T08:28:41.796Z,100767.61
2022-09-06T08:31:11.145Z,100766.62
2022-09-06T08:33:39.547Z,100761.77
2022-09-06T08:36:08.391Z,100754.07
2022-09-06T08:38:36.817Z,100749.60
2022-09-06T08:41:15.641Z,100750.25
2022-09-06T08:46:59.399Z,100755.03
2022-09-06T08:49:30.010Z,100753.04
2022-09-06T08:52:01.844Z,100753.77
2022-09-06T08:54:37.386Z,100747.80
2022-09-06T08:57:08.074Z,100746.27
2022-09-06T08:59:37.870Z,100750.60
2022-09-06T09:02:05.729Z,100750.98
2022-09-06T09:04:35.699Z,100749.14
2022-09-06T09:07:22.017Z,100750.96
2022-09-06T09:09:50.687Z,100746.45
2022-09-06T09:12:22.383Z,100742.66
2022-09-06T09:14:56.055Z,100741.26
2022-09-06T09:17:29.411Z,100741.66
2022-09-06T09:19:57.303Z,100739.95
2022-09-06T09:22:25.842Z,100738.56
2022-09-06T09:24:54.802Z,100736.38
2022-09-06T09:27:25.114Z,100730.84
2022-09-06T09:32:47.659Z,100731.00
2022-09-06T09:35:21.715Z,100728.62
2022-09-06T09:38:04.970Z,100730.27
2022-09-06T09:40:54.451Z,100728.99
2022-09-06T09:43:29.847Z,100725.04
2022-09-06T09:46:10.527Z,100724.09
2022-09-06T09:48:39.385Z,100718.28
2022-09-06T09:51:25.566Z,100714.68
2022-09-06T09:53:59.700Z,100713.62
2022-09-06T09:56:29.894Z,100715.79
2022-09-06T09:58:58.717Z,100713.40
2022-09-06T10:01:28.449Z,100710.79
2022-09-06T10:07:13.813Z,100706.44
2022-09-06T10:09:58.496Z,100700.77
2022-09-06T10:12:30.337Z,100698.17
2022-09-06T10:15:01.246Z,100695.38
2022-09-06T10:17:36.032Z,100695.35
2022-09-06T10:20:05.350Z,100695.15
2022-09-06T10:22:44.034Z,100690.10
2022-09-06T10:25:11.810Z,100686.09
2022-09-06T10:28:10.916Z,100689.71
2022-09-06T10:31:02.489Z,100688.85
2022-09-06T10:33:39.684Z,100689.64
2022-09-06T10:36:07.792Z,100688.38
2022-09-06T10:39:01.566Z,100684.25
2022-09-06T10:41:34.635Z,100680.70
2022-09-06T10:44:08.542Z,100675.12
2022-09-06T10:46:37.303Z,100674.77
2022-09-06T10:49:10.438Z,100676.06
2022-09-06T10:51:49.647Z,100668.63
2022-09-06T10:54:21.963Z,100671.07
2022-09-06T10:56:59.087Z,100672.66
2022-09-06T11:02:13.900Z,100670.14
2022-09-06T11:07:33.791Z,100675.89
2022-09-06T11:10:01.686Z,100672.83
2022-09-06T11:12:56.143Z,100672.66
2022-09-06T11:15:26.052Z,100666.09
2022-09-06T11:17:53.733Z,100665.63
2022-09-06T11:20:36.037Z,100660.22
2022-09-06T11:23:11.210Z,100659.16
2022-09-06T11:25:44.860Z,100654.71
2022-09-06T11:28:29.812Z,100646.10
2022-09-06T11:30:58.307Z,100634.55
2022-09-06T11:33:28.598Z,100634.48
2022-09-06T11:36:15.113Z,100631.99
2022-09-06T11:38:43.227Z,100628.45
2022-09-06T11:41:15.965Z,100623.90
2022-09-06T11:43:51.117Z,100623.16
2022-09-06T11:46:33.928Z,100620.05
2022-09-06T11:49:09.424Z,100622.06
2022-09-06T11:51:39.070Z,100613.91
2022-09-06T11:54:22.304Z,100611.65
2022-09-06T11:56:58.441Z,100607.75
2022-09-06T11:59:35.992Z,100608.45
2022-09-06T12:02:22.576Z,100604.42
2022-09-06T12:05:00.709Z,100597.86
2022-09-06T12:07:29.496Z,100592.25
2022-09-06T12:09:57.561Z,100591.06
2022-09-06T12:12:44.436Z,100586.90
2022-09-06T12:15:30.748Z,100584.35
2022-09-06T12:17:59.655Z,100584.58
2022-09-06T12:20:45.960Z,100580.63
2022-09-06T12:23:40.101Z,100578.33
2022-09-06T12:26:11.828Z,100573.90
2022-09-06T12:28:47.263Z,100568.08
2022-09-06T12:31:33.824Z,100567.23
2022-09-06T12:34:06.535Z,100563.02
2022-09-06T12:36:34.392Z,100562.54
2022-09-06T12:39:04.371Z,100560.31
2022-09-06T12:41:38.370Z,100554.85
2022-09-06T12:44:10.053Z,100552.82
2022-09-06T12:46:40.086Z,100555.54
2022-09-06T12:49:09.570Z,100550.65
2022-09-06T12:51:38.604Z,100545.23
2022-09-06T12:54:32.514Z,100543.44
2022-09-06T12:57:19.307Z,100544.77
2022-09-06T12:59:51.665Z,100539.88
2022-09-06T13:02:29.916Z,100538.66
2022-09-06T13:05:05.529Z,100541.55
2022-09-06T13:07:35.684Z,100542.34
2022-09-06T13:10:04.581Z,100540.69
2022-09-06T13:12:37.401Z,100541.35
2022-09-06T13:15:11.653Z,100542.58
2022-09-06T13:17:40.345Z,100541.33
2022-09-06T13:20:28.619Z,100542.50
2022-09-06T13:23:08.246Z,100544.98
2022-09-06T13:25:47.100Z,100540.84
2022-09-06T13:28:32.376Z,100535.46
2022-09-06T13:31:19.125Z,100531.86
2022-09-06T13:34:07.740Z,100529.79
2022-09-06T13:36:35.837Z,100529.66
2022-09-06T13:39:04.594Z,100525.04
2022-09-06T13:41:35.808Z,100524.61
2022-09-06T13:44:22.071Z,100527.67
2022-09-06T13:46:55.901Z,100523.94
2022-09-06T13:49:24.246Z,100524.79
2022-09-06T13:51:58.262Z,100528.08
2022-09-06T13:54:27.087Z,100527.09
2022-09-06T13:56:55.983Z,100526.91
2022-09-06T13:59:24.790Z,100529.70
2022-09-06T14:02:03.731Z,100527.73
2022-09-06T14:04:32.485Z,100526.62
2022-09-06T14:07:00.325Z,100521.91
2022-09-06T14:09:28.477Z,100517.40
2022-09-06T14:11:56.651Z,100514.77
2022-09-06T14:14:24.878Z,100516.78
2022-09-06T14:16:54.098Z,100514.12
2022-09-06T14:19:22.181Z,100512.85
2022-09-06T14:21:50.413Z,100514.40
2022-09-06T14:24:18.277Z,100512.80
2022-09-06T14:26:45.987Z,100512.29
2022-09-06T14:29:13.762Z,100511.33
2022-09-06T14:31:41.587Z,100510.58
2022-09-06T14:34:09.639Z,100503.52
2022-09-06T14:36:37.733Z,100502.11
2022-09-06T14:39:05.820Z,100497.96
2022-09-06T14:41:34.065Z,100494.79
2022-09-06T14:44:02.127Z,100491.73
2022-09-06T14:46:30.403Z,100489.83
2022-09-06T14:49:02.923Z,100489.92
2022-09-06T14:51:30.796Z,100491.54
2022-09-06T14:54:01.698Z,100492.34
2022-09-06T14:56:30.501Z,100488.70
2022-09-06T14:59:00.244Z,100490.59
2022-09-06T15:01:37.098Z,100491.19
2022-09-06T15:04:07.958Z,100488.77
2022-09-06T15:06:37.273Z,100487.27
2022-09-06T15:09:05.979Z,100485.43
2022-09-06T15:11:35.795Z,100484.56
2022-09-06T15:14:05.155Z,100485.85
2022-09-06T15:16:33.372Z,100482.98
2022-09-06T15:19:02.964Z,100479.14
2022-09-06T15:21:31.656Z,100479.44
2022-09-06T15:24:00.500Z,100478.45
2022-09-06T15:26:28.913Z,100475.66
2022-09-06T15:28:57.044Z,100472.73
2022-09-06T15:31:25.322Z,100471.20
2022-09-06T15:33:54.045Z,100471.59
2022-09-06T15:36:22.244Z,100469.49
2022-09-06T15:38:50.928Z,100466.30
2022-09-06T15:41:20.936Z,100468.94
2022-09-06T15:43:50.668Z,100473.88
2022-09-06T15:46:23.359Z,100474.27
2022-09-06T15:48:53.865Z,100475.06
2022-09-06T15:51:21.624Z,100472.20
2022-09-06T15:53:49.385Z,100470.13
2022-09-06T15:56:17.753Z,100468.23
2022-09-06T15:58:49.104Z,100469.41
2022-09-06T16:01:18.577Z,100470.39
2022-09-06T16:03:48.766Z,100467.16
2022-09-06T16:06:27.244Z,100466.66
2022-09-06T16:09:09.812Z,100463.88
2022-09-06T16:11:37.923Z,100457.67
2022-09-06T16:14:07.603Z,100458.89
2022-09-06T16:16:36.138Z,100462.17
2022-09-06T16:19:04.507Z,100461.89
2022-09-06T16:21:33.562Z,100458.98
2022-09-06T16:24:02.818Z,100458.26
2022-09-06T16:26:33.119Z,100454.95
2022-09-06T16:29:02.000Z,100455.13
2022-09-06T16:31:30.503Z,100454.03
2022-09-06T16:33:58.347Z,100454.06
2022-09-06T16:36:27.137Z,100449.55
2022-09-06T16:38:58.587Z,100448.39
2022-09-06T16:41:26.576Z,100452.77
2022-09-06T16:43:54.793Z,100449.95
2022-09-06T16:46:23.724Z,100445.65
2022-09-06T16:48:52.825Z,100445.36
2022-09-06T16:51:22.289Z,100443.41
2022-09-06T16:53:50.629Z,100449.64
2022-09-06T16:56:20.306Z,100452.76
2022-09-06T16:58:52.241Z,100457.17
2022-09-06T17:01:20.908Z,100459.41
2022-09-06T17:03:50.361Z,100460.36
2022-09-06T17:06:19.153Z,100457.14
2022-09-06T17:08:47.726Z,100451.39
2022-09-06T17:11:18.599Z,100449.66
2022-09-06T17:13:47.579Z,100448.34
2022-09-06T17:16:34.267Z,100450.58
2022-09-06T17:19:03.217Z,100454.23
2022-09-06T17:21:31.633Z,100456.52
2022-09-06T17:24:04.416Z,100463.63
2022-09-06T17:26:33.912Z,100464.69
2022-09-06T17:29:02.046Z,100465.05
2022-09-06T17:31:30.363Z,100467.70
2022-09-06T17:33:59.817Z,100467.02
2022-09-06T17:36:30.558Z,100465.92
2022-09-06T17:39:11.156Z,100468.65
2022-09-06T17:41:40.316Z,100471.08
2022-09-06T17:44:11.027Z,100468.66
2022-09-06T17:46:51.840Z,100469.05
2022-09-06T17:49:27.664Z,100463.79
2022-09-06T17:51:55.490Z,100463.17
2022-09-06T17:54:23.588Z,100470.25
2022-09-06T17:56:51.363Z,100470.75
2022-09-06T17:59:19.163Z,100474.73
2022-09-06T18:01:47.131Z,100477.39
2022-09-06T18:04:15.266Z,100479.32
2022-09-06T18:06:43.811Z,100482.64
2022-09-06T18:09:14.897Z,100485.42
2022-09-06T18:11:45.821Z,100486.02
2022-09-06T18:14:16.259Z,100486.35
2022-09-06T18:16:47.476Z,100492.31
2022-09-06T18:19:16.124Z,100493.28
2022-09-06T18:21:44.244Z,100493.36
2022-09-06T18:24:14.467Z,100497.15
2022-09-06T18:26:44.285Z,100496.43
2022-09-06T18:29:14.868Z,100497.36
2022-09-06T18:31:43.573Z,100502.00
2022-09-06T18:34:12.684Z,100504.83
2022-09-06T18:36:40.970Z,100508.19
2022-09-06T18:39:08.806Z,100504.23
2022-09-06T18:41:55.239Z,100507.05
2022-09-06T18:44:23.819Z,100505.45
2022-09-06T18:46:55.803Z,100503.76
2022-09-06T18:49:24.113Z,100502.58
2022-09-06T18:51:52.227Z,100499.71
2022-09-06T18:54:20.436Z,100500.36
2022-09-06T18:56:50.032Z,100497.23
2022-09-06T18:59:17.875Z,100495.69
2022-09-06T19:01:45.822Z,100493.05
2022-09-06T19:04:14.039Z,100496.98
2022-09-06T19:06:42.622Z,100494.45
2022-09-06T19:09:12.144Z,100494.73
2022-09-06T19:11:42.883Z,100497.16
2022-09-06T19:14:11.326Z,100496.88
2022-09-06T19:16:39.314Z,100491.98
2022-09-06T19:19:08.456Z,100491.16
2022-09-06T19:21:40.955Z,100489.30
2022-09-06T19:24:11.274Z,100486.48
2022-09-06T19:26:43.100Z,100481.23
2022-09-06T19:29:15.589Z,100478.02
2022-09-06T19:31:49.658Z,100472.98
2022-09-06T19:34:17.603Z,100474.02
2022-09-06T19:36:45.737Z,100471.63
2022-09-06T19:39:14.980Z,100465.48
2022-09-06T19:41:45.290Z,100460.84
2022-09-06T19:44:14.087Z,100458.13
2022-09-06T19:46:46.208Z,100454.83
2022-09-06T19:49:19.342Z,100459.54
2022-09-06T19:51:49.176Z,100462.88
2022-09-06T19:54:17.633Z,100464.77
2022-09-06T19:56:47.206Z,100465.98
2022-09-06T19:59:18.985Z,100464.52
2022-09-06T20:01:47.792Z,100464.73
2022-09-06T20:04:17.735Z,100464.55
2022-09-06T20:06:47.500Z,100461.59
2022-09-06T20:09:18.490Z,100464.15
2022-09-06T20:11:46.562Z,100457.79
2022-09-06T20:14:14.653Z,100449.20
2022-09-06T20:16:43.129Z,100448.64
2022-09-06T20:19:14.253Z,100453.03
2022-09-06T20:21:43.680Z,100456.77
2022-09-06T20:24:11.590Z,100454.34
2022-09-06T20:26:40.501Z,100451.34
2022-09-06T20:29:08.637Z,100449.05
2022-09-06T20:31:37.461Z,100450.53
2022-09-06T20:34:06.428Z,100451.45
2022-09-06T20:36:34.858Z,100455.63
2022-09-06T20:39:03.561Z,100454.14
2022-09-06T20:41:31.559Z,100455.51
2022-09-06T20:43:59.916Z,100454.70
2022-09-06T20:46:29.421Z,100452.80
2022-09-06T20:48:58.215Z,100452.39
2022-09-06T20:51:26.240Z,100454.56
2022-09-06T20:53:56.691Z,100449.41
2022-09-06T20:56:29.278Z,100444.77
2022-09-06T20:59:00.616Z,100446.35
2022-09-06T21:01:30.213Z,100444.36
2022-09-06T21:04:02.554Z,100445.39
2022-09-06T21:06:31.590Z,100441.38
2022-09-06T21:08:59.650Z,100439.63
2022-09-06T21:11:28.141Z,100440.32
2022-09-06T21:13:57.031Z,100441.89
2022-09-06T21:16:28.042Z,100441.58
2022-09-06T21:19:01.251Z,100441.98
2022-09-06T21:21:30.618Z,100442.96
2022-09-06T21:24:00.012Z,100446.70
2022-09-06T21:26:27.804Z,100446.30
2022-09-06T21:28:56.651Z,100442.23
2022-09-06T21:31:29.805Z,100443.65
2022-09-06T21:33:59.096Z,100438.27
2022-09-06T21:36:30.157Z,100438.13
2022-09-06T21:38:59.359Z,100434.41
2022-09-06T21:41:28.650Z,100430.91
2022-09-06T21:43:58.458Z,100425.73
2022-09-06T21:46:32.636Z,100426.12
2022-09-06T21:49:04.112Z,100428.13
2022-09-06T21:51:33.644Z,100429.02
2022-09-06T21:54:04.812Z,100430.87
2022-09-06T21:56:36.939Z,100426.77
2022-09-06T21:59:05.277Z,100429.35
2022-09-06T22:01:34.123Z,100429.15
2022-09-06T22:04:02.643Z,100424.91
2022-09-06T22:06:31.585Z,100420.77
2022-09-06T22:09:01.106Z,100416.21
2022-09-06T22:11:30.817Z,100415.33
2022-09-06T22:13:59.434Z,100410.94
2022-09-06T22:16:28.734Z,100410.40
2022-09-06T22:18:56.743Z,100413.31
2022-09-06T22:21:24.950Z,100416.54
2022-09-06T22:23:56.910Z,100419.91
2022-09-06T22:26:26.206Z,100416.80
2022-09-06T22:28:55.227Z,100416.35
2022-09-06T22:31:23.580Z,100413.89
2022-09-06T22:33:51.848Z,100412.70
2022-09-06T22:36:19.903Z,100413.02
2022-09-06T22:38:47.663Z,100413.14
2022-09-06T22:41:15.420Z,100408.56
2022-09-06T22:43:43.109Z,100408.77
2022-09-06T22:46:11.308Z,100407.00
2022-09-06T22:48:39.033Z,100405.63
2022-09-06T22:51:06.818Z,100406.13
2022-09-06T22:53:35.068Z,100407.25
2022-09-06T22:56:03.022Z,100404.04
2022-09-06T22:58:30.827Z,100399.66
2022-09-06T23:01:06.459Z,100396.39
2022-09-06T23:03:35.431Z,100392.58
2022-09-06T23:06:03.689Z,100390.12
2022-09-06T23:08:32.196Z,100388.28
2022-09-06T23:11:03.568Z,100389.48
2022-09-06T23:13:31.624Z,100393.02
2022-09-06T23:16:06.884Z,100395.95
2022-09-06T23:18:35.029Z,100400.90
2022-09-06T23:21:06.790Z,100404.33
2022-09-06T23:23:35.267Z,100413.48
2022-09-06T23:26:11.064Z,100436.13
2022-09-06T23:28:39.395Z,100494.45
2022-09-06T23:31:09.092Z,100509.71
2022-09-06T23:33:37.360Z,100484.13
2022-09-06T23:36:06.570Z,100478.57
2022-09-06T23:38:35.029Z,100479.98
2022-09-06T23:41:03.294Z,100474.59
2022-09-06T23:43:31.203Z,100472.30
2022-09-06T23:45:58.992Z,100462.08
2022-09-06T23:48:26.873Z,100455.98
2022-09-06T23:50:54.719Z,100457.89
2022-09-06T23:53:22.660Z,100455.82
2022-09-06T23:55:50.571Z,100448.11
2022-09-06T23:58:18.422Z,100441.59
